sensor_id;sensor_type;location;lat;lon;timestamp;P1;durP1;ratioP1;P2;durP2;ratioP2
25319;SDS011;13256;49.012;8.610;2023-11-18T00:01:51;16.02;;;8.45;;
25319;SDS011;13256;49.012;8.610;2023-11-18T00:04:21;11.23;;;7.95;;
25319;SDS011;13256;49.012;8.610;2023-11-18T00:06:48;16.10;;;7.13;;
25319;SDS011;13256;49.012;8.610;2023-11-18T00:09:19;12.25;;;7.78;;
25319;SDS011;13256;49.012;8.610;2023-11-18T00:11:47;9.30;;;7.22;;
25319;SDS011;13256;49.012;8.610;2023-11-18T00:17:09;11.15;;;6.53;;
25319;SDS011;13256;49.012;8.610;2023-11-18T00:19:39;10.63;;;6.40;;
25319;SDS011;13256;49.012;8.610;2023-11-18T00:22:10;10.52;;;6.93;;
25319;SDS011;13256;49.012;8.610;2023-11-18T00:24:40;10.20;;;6.80;;
25319;SDS011;13256;49.012;8.610;2023-11-18T00:27:07;10.02;;;6.57;;
25319;SDS011;13256;49.012;8.610;2023-11-18T00:29:35;9.70;;;6.57;;
25319;SDS011;13256;49.012;8.610;2023-11-18T00:32:04;12.20;;;6.55;;
25319;SDS011;13256;49.012;8.610;2023-11-18T00:34:36;11.60;;;6.50;;
25319;SDS011;13256;49.012;8.610;2023-11-18T00:37:05;13.90;;;7.13;;
25319;SDS011;13256;49.012;8.610;2023-11-18T00:39:37;11.63;;;6.78;;
25319;SDS011;13256;49.012;8.610;2023-11-18T00:42:08;11.60;;;6.63;;
25319;SDS011;13256;49.012;8.610;2023-11-18T00:44:37;9.77;;;6.47;;
25319;SDS011;13256;49.012;8.610;2023-11-18T00:47:05;10.07;;;6.60;;
25319;SDS011;13256;49.012;8.610;2023-11-18T00:49:32;11.25;;;6.57;;
25319;SDS011;13256;49.012;8.610;2023-11-18T00:52:04;10.68;;;6.72;;
25319;SDS011;13256;49.012;8.610;2023-11-18T00:54:34;10.10;;;7.28;;
25319;SDS011;13256;49.012;8.610;2023-11-18T00:57:02;11.35;;;5.93;;
25319;SDS011;13256;49.012;8.610;2023-11-18T01:04:53;13.10;;;7.85;;
25319;SDS011;13256;49.012;8.610;2023-11-18T01:07:21;10.75;;;6.65;;
25319;SDS011;13256;49.012;8.610;2023-11-18T01:09:48;12.40;;;7.40;;
25319;SDS011;13256;49.012;8.610;2023-11-18T01:12:15;14.23;;;7.88;;
25319;SDS011;13256;49.012;8.610;2023-11-18T01:14:54;12.15;;;7.85;;
25319;SDS011;13256;49.012;8.610;2023-11-18T01:17:34;13.38;;;7.07;;
25319;SDS011;13256;49.012;8.610;2023-11-18T01:20:05;11.38;;;6.53;;
25319;SDS011;13256;49.012;8.610;2023-11-18T01:22:37;11.35;;;7.03;;
25319;SDS011;13256;49.012;8.610;2023-11-18T01:25:06;9.50;;;6.50;;
25319;SDS011;13256;49.012;8.610;2023-11-18T01:27:34;14.15;;;7.80;;
25319;SDS011;13256;49.012;8.610;2023-11-18T01:30:03;12.40;;;7.03;;
25319;SDS011;13256;49.012;8.610;2023-11-18T01:35:50;11.15;;;6.85;;
25319;SDS011;13256;49.012;8.610;2023-11-18T01:38:18;13.35;;;7.03;;
25319;SDS011;13256;49.012;8.610;2023-11-18T01:40:51;11.52;;;7.22;;
25319;SDS011;13256;49.012;8.610;2023-11-18T01:43:19;15.38;;;7.00;;
25319;SDS011;13256;49.012;8.610;2023-11-18T01:45:58;10.27;;;6.32;;
25319;SDS011;13256;49.012;8.610;2023-11-18T01:48:28;9.00;;;6.25;;
25319;SDS011;13256;49.012;8.610;2023-11-18T01:51:01;13.43;;;7.35;;
25319;SDS011;13256;49.012;8.610;2023-11-18T01:53:34;15.75;;;7.50;;
25319;SDS011;13256;49.012;8.610;2023-11-18T01:56:06;12.20;;;8.10;;
25319;SDS011;13256;49.012;8.610;2023-11-18T01:58:39;13.90;;;7.82;;
25319;SDS011;13256;49.012;8.610;2023-11-18T02:01:07;12.93;;;7.20;;
25319;SDS011;13256;49.012;8.610;2023-11-18T02:04:04;13.35;;;7.13;;
25319;SDS011;13256;49.012;8.610;2023-11-18T02:06:42;13.65;;;7.43;;
25319;SDS011;13256;49.012;8.610;2023-11-18T02:09:16;14.43;;;6.97;;
25319;SDS011;13256;49.012;8.610;2023-11-18T02:15:21;12.50;;;6.90;;
25319;SDS011;13256;49.012;8.610;2023-11-18T02:17:50;15.15;;;7.65;;
25319;SDS011;13256;49.012;8.610;2023-11-18T02:20:23;13.50;;;7.25;;
25319;SDS011;13256;49.012;8.610;2023-11-18T02:22:50;15.02;;;7.18;;
25319;SDS011;13256;49.012;8.610;2023-11-18T02:25:47;15.38;;;7.40;;
25319;SDS011;13256;49.012;8.610;2023-11-18T02:28:17;14.52;;;7.38;;
25319;SDS011;13256;49.012;8.610;2023-11-18T02:30:47;13.32;;;7.35;;
25319;SDS011;13256;49.012;8.610;2023-11-18T02:33:27;11.15;;;6.70;;
25319;SDS011;13256;49.012;8.610;2023-11-18T02:36:18;12.23;;;6.80;;
25319;SDS011;13256;49.012;8.610;2023-11-18T02:38:57;12.25;;;7.03;;
25319;SDS011;13256;49.012;8.610;2023-11-18T02:41:29;10.45;;;6.63;;
25319;SDS011;13256;49.012;8.610;2023-11-18T02:46:36;10.02;;;5.72;;
25319;SDS011;13256;49.012;8.610;2023-11-18T02:49:04;13.98;;;7.80;;
25319;SDS011;13256;49.012;8.610;2023-11-18T02:51:32;10.23;;;6.28;;
25319;SDS011;13256;49.012;8.610;2023-11-18T02:54:12;9.00;;;5.63;;
25319;SDS011;13256;49.012;8.610;2023-11-18T02:56:39;10.52;;;5.97;;
25319;SDS011;13256;49.012;8.610;2023-11-18T02:59:08;13.05;;;6.18;;
25319;SDS011;13256;49.012;8.610;2023-11-18T03:01:38;10.82;;;6.38;;
25319;SDS011;13256;49.012;8.610;2023-11-18T03:04:05;9.25;;;6.35;;
25319;SDS011;13256;49.012;8.610;2023-11-18T03:06:37;9.25;;;5.85;;
25319;SDS011;13256;49.012;8.610;2023-11-18T03:09:33;9.27;;;5.05;;
25319;SDS011;13256;49.012;8.610;2023-11-18T03:12:02;9.85;;;5.65;;
25319;SDS011;13256;49.012;8.610;2023-11-18T03:14:29;10.13;;;5.30;;
25319;SDS011;13256;49.012;8.610;2023-11-18T03:16:58;8.90;;;5.53;;
25319;SDS011;13256;49.012;8.610;2023-11-18T03:19:31;8.05;;;5.15;;
25319;SDS011;13256;49.012;8.610;2023-11-18T03:22:05;10.20;;;5.75;;
25319;SDS011;13256;49.012;8.610;2023-11-18T03:24:38;10.82;;;5.65;;
25319;SDS011;13256;49.012;8.610;2023-11-18T03:27:06;8.05;;;4.78;;
25319;SDS011;13256;49.012;8.610;2023-11-18T03:29:35;8.23;;;5.10;;
25319;SDS011;13256;49.012;8.610;2023-11-18T03:32:02;8.10;;;4.75;;
25319;SDS011;13256;49.012;8.610;2023-11-18T03:34:33;8.05;;;4.78;;
25319;SDS011;13256;49.012;8.610;2023-11-18T03:37:02;8.93;;;5.05;;
25319;SDS011;13256;49.012;8.610;2023-11-18T03:39:29;11.55;;;5.20;;
25319;SDS011;13256;49.012;8.610;2023-11-18T03:41:56;11.20;;;5.60;;
25319;SDS011;13256;49.012;8.610;2023-11-18T03:44:23;8.13;;;5.00;;
25319;SDS011;13256;49.012;8.610;2023-11-18T03:46:50;9.52;;;5.53;;
25319;SDS011;13256;49.012;8.610;2023-11-18T03:49:17;9.45;;;4.93;;
25319;SDS011;13256;49.012;8.610;2023-11-18T03:54:40;7.43;;;4.82;;
25319;SDS011;13256;49.012;8.610;2023-11-18T03:57:11;11.70;;;5.20;;
25319;SDS011;13256;49.012;8.610;2023-11-18T03:59:40;13.50;;;6.40;;
25319;SDS011;13256;49.012;8.610;2023-11-18T04:02:11;18.40;;;8.35;;
25319;SDS011;13256;49.012;8.610;2023-11-18T04:04:39;13.52;;;7.38;;
25319;SDS011;13256;49.012;8.610;2023-11-18T04:07:09;10.32;;;6.38;;
25319;SDS011;13256;49.012;8.610;2023-11-18T04:09:39;14.30;;;6.85;;
25319;SDS011;13256;49.012;8.610;2023-11-18T04:12:20;23.83;;;10.48;;
25319;SDS011;13256;49.012;8.610;2023-11-18T04:17:53;47.60;;;21.13;;
25319;SDS011;13256;49.012;8.610;2023-11-18T04:20:21;46.55;;;19.73;;
25319;SDS011;13256;49.012;8.610;2023-11-18T04:22:52;45.20;;;20.60;;
25319;SDS011;13256;49.012;8.610;2023-11-18T04:25:19;32.15;;;14.55;;
25319;SDS011;13256;49.012;8.610;2023-11-18T04:30:42;17.55;;;8.45;;
25319;SDS011;13256;49.012;8.610;2023-11-18T04:33:14;12.30;;;6.15;;
25319;SDS011;13256;49.012;8.610;2023-11-18T04:35:42;10.85;;;6.35;;
25319;SDS011;13256;49.012;8.610;2023-11-18T04:38:12;9.45;;;5.57;;
25319;SDS011;13256;49.012;8.610;2023-11-18T04:40:43;11.57;;;6.55;;
25319;SDS011;13256;49.012;8.610;2023-11-18T04:43:12;22.27;;;12.52;;
25319;SDS011;13256;49.012;8.610;2023-11-18T04:45:39;16.50;;;8.93;;
25319;SDS011;13256;49.012;8.610;2023-11-18T04:48:05;14.18;;;7.35;;
25319;SDS011;13256;49.012;8.610;2023-11-18T04:50:35;16.80;;;7.65;;
25319;SDS011;13256;49.012;8.610;2023-11-18T04:53:02;13.13;;;6.78;;
25319;SDS011;13256;49.012;8.610;2023-11-18T04:55:29;11.35;;;7.72;;
25319;SDS011;13256;49.012;8.610;2023-11-18T04:57:59;13.15;;;7.82;;
25319;SDS011;13256;49.012;8.610;2023-11-18T05:00:32;13.93;;;7.70;;
25319;SDS011;13256;49.012;8.610;2023-11-18T05:03:00;11.70;;;7.47;;
25319;SDS011;13256;49.012;8.610;2023-11-18T05:05:29;15.52;;;7.53;;
25319;SDS011;13256;49.012;8.610;2023-11-18T05:07:57;11.85;;;6.80;;
25319;SDS011;13256;49.012;8.610;2023-11-18T05:10:26;17.65;;;7.97;;
25319;SDS011;13256;49.012;8.610;2023-11-18T05:12:55;18.05;;;7.85;;
25319;SDS011;13256;49.012;8.610;2023-11-18T05:15:35;14.88;;;8.02;;
25319;SDS011;13256;49.012;8.610;2023-11-18T05:18:05;14.05;;;8.48;;
25319;SDS011;13256;49.012;8.610;2023-11-18T05:20:37;14.57;;;7.78;;
25319;SDS011;13256;49.012;8.610;2023-11-18T05:23:05;13.27;;;7.80;;
25319;SDS011;13256;49.012;8.610;2023-11-18T05:25:36;12.68;;;7.43;;
25319;SDS011;13256;49.012;8.610;2023-11-18T05:28:05;14.77;;;7.90;;
25319;SDS011;13256;49.012;8.610;2023-11-18T05:30:36;13.48;;;7.97;;
25319;SDS011;13256;49.012;8.610;2023-11-18T05:33:04;14.23;;;7.28;;
25319;SDS011;13256;49.012;8.610;2023-11-18T05:35:35;23.05;;;8.40;;
25319;SDS011;13256;49.012;8.610;2023-11-18T05:38:03;18.52;;;7.78;;
25319;SDS011;13256;49.012;8.610;2023-11-18T05:40:32;15.40;;;7.47;;
25319;SDS011;13256;49.012;8.610;2023-11-18T05:43:02;20.38;;;8.70;;
25319;SDS011;13256;49.012;8.610;2023-11-18T05:45:32;20.73;;;8.40;;
25319;SDS011;13256;49.012;8.610;2023-11-18T05:48:22;19.75;;;8.70;;
25319;SDS011;13256;49.012;8.610;2023-11-18T05:50:56;19.77;;;8.50;;
25319;SDS011;13256;49.012;8.610;2023-11-18T05:53:23;14.75;;;8.35;;
25319;SDS011;13256;49.012;8.610;2023-11-18T05:56:04;17.08;;;9.27;;
25319;SDS011;13256;49.012;8.610;2023-11-18T05:58:32;17.38;;;8.77;;
25319;SDS011;13256;49.012;8.610;2023-11-18T06:01:01;14.60;;;8.82;;
25319;SDS011;13256;49.012;8.610;2023-11-18T06:03:32;15.43;;;9.00;;
25319;SDS011;13256;49.012;8.610;2023-11-18T06:05:59;15.75;;;8.02;;
25319;SDS011;13256;49.012;8.610;2023-11-18T06:08:26;19.02;;;8.80;;
25319;SDS011;13256;49.012;8.610;2023-11-18T06:10:53;16.20;;;9.02;;
25319;SDS011;13256;49.012;8.610;2023-11-18T06:13:27;17.30;;;9.75;;
25319;SDS011;13256;49.012;8.610;2023-11-18T06:15:55;14.73;;;7.88;;
25319;SDS011;13256;49.012;8.610;2023-11-18T06:18:26;14.73;;;7.90;;
25319;SDS011;13256;49.012;8.610;2023-11-18T06:20:53;15.88;;;8.60;;
25319;SDS011;13256;49.012;8.610;2023-11-18T06:23:22;12.55;;;7.82;;
25319;SDS011;13256;49.012;8.610;2023-11-18T06:25:52;21.63;;;9.63;;
25319;SDS011;13256;49.012;8.610;2023-11-18T06:28:21;18.70;;;9.57;;
25319;SDS011;13256;49.012;8.610;2023-11-18T06:30:48;21.33;;;10.35;;
25319;SDS011;13256;49.012;8.610;2023-11-18T06:33:16;30.50;;;13.07;;
25319;SDS011;13256;49.012;8.610;2023-11-18T06:35:44;20.52;;;10.18;;
25319;SDS011;13256;49.012;8.610;2023-11-18T06:41:15;17.25;;;8.95;;
25319;SDS011;13256;49.012;8.610;2023-11-18T06:43:45;17.65;;;9.85;;
25319;SDS011;13256;49.012;8.610;2023-11-18T06:46:22;15.50;;;8.10;;
25319;SDS011;13256;49.012;8.610;2023-11-18T06:48:52;13.40;;;7.22;;
25319;SDS011;13256;49.012;8.610;2023-11-18T06:51:20;12.18;;;7.50;;
25319;SDS011;13256;49.012;8.610;2023-11-18T06:53:51;12.55;;;7.30;;
25319;SDS011;13256;49.012;8.610;2023-11-18T06:56:19;9.80;;;6.20;;
25319;SDS011;13256;49.012;8.610;2023-11-18T06:58:50;9.70;;;5.93;;
25319;SDS011;13256;49.012;8.610;2023-11-18T07:01:17;10.63;;;6.40;;
25319;SDS011;13256;49.012;8.610;2023-11-18T07:03:45;11.18;;;6.45;;
25319;SDS011;13256;49.012;8.610;2023-11-18T07:06:21;9.73;;;5.95;;
25319;SDS011;13256;49.012;8.610;2023-11-18T07:15:20;10.27;;;6.07;;
25319;SDS011;13256;49.012;8.610;2023-11-18T07:17:49;8.48;;;5.55;;
25319;SDS011;13256;49.012;8.610;2023-11-18T07:23:11;11.50;;;7.38;;
25319;SDS011;13256;49.012;8.610;2023-11-18T07:25:40;12.18;;;7.55;;
25319;SDS011;13256;49.012;8.610;2023-11-18T07:28:14;12.68;;;7.10;;
25319;SDS011;13256;49.012;8.610;2023-11-18T07:30:42;12.43;;;7.30;;
25319;SDS011;13256;49.012;8.610;2023-11-18T07:33:14;19.45;;;10.60;;
25319;SDS011;13256;49.012;8.610;2023-11-18T07:35:46;14.00;;;8.23;;
25319;SDS011;13256;49.012;8.610;2023-11-18T07:39:07;17.45;;;9.52;;
25319;SDS011;13256;49.012;8.610;2023-11-18T07:41:43;12.02;;;7.20;;
25319;SDS011;13256;49.012;8.610;2023-11-18T07:44:11;8.90;;;5.95;;
25319;SDS011;13256;49.012;8.610;2023-11-18T07:46:43;8.90;;;5.45;;
25319;SDS011;13256;49.012;8.610;2023-11-18T07:49:15;9.73;;;5.97;;
25319;SDS011;13256;49.012;8.610;2023-11-18T07:51:42;8.63;;;5.07;;
25319;SDS011;13256;49.012;8.610;2023-11-18T07:54:09;10.45;;;5.55;;
25319;SDS011;13256;49.012;8.610;2023-11-18T07:56:36;10.13;;;5.57;;
25319;SDS011;13256;49.012;8.610;2023-11-18T07:59:06;9.07;;;5.22;;
25319;SDS011;13256;49.012;8.610;2023-11-18T08:01:34;6.95;;;4.07;;
25319;SDS011;13256;49.012;8.610;2023-11-18T08:04:01;19.23;;;9.27;;
25319;SDS011;13256;49.012;8.610;2023-11-18T08:06:32;16.50;;;8.13;;
25319;SDS011;13256;49.012;8.610;2023-11-18T08:08:59;18.98;;;9.32;;
25319;SDS011;13256;49.012;8.610;2023-11-18T08:11:26;11.27;;;5.45;;
25319;SDS011;13256;49.012;8.610;2023-11-18T08:13:56;11.00;;;5.25;;
25319;SDS011;13256;49.012;8.610;2023-11-18T08:16:25;6.83;;;4.20;;
25319;SDS011;13256;49.012;8.610;2023-11-18T08:18:55;17.08;;;6.63;;
25319;SDS011;13256;49.012;8.610;2023-11-18T08:21:23;19.48;;;7.40;;
25319;SDS011;13256;49.012;8.610;2023-11-18T08:23:54;10.87;;;5.80;;
25319;SDS011;13256;49.012;8.610;2023-11-18T08:26:22;17.17;;;8.38;;
25319;SDS011;13256;49.012;8.610;2023-11-18T08:28:51;19.25;;;9.18;;
25319;SDS011;13256;49.012;8.610;2023-11-18T08:31:19;20.98;;;9.35;;
25319;SDS011;13256;49.012;8.610;2023-11-18T08:33:47;9.75;;;6.38;;
25319;SDS011;13256;49.012;8.610;2023-11-18T08:36:23;9.80;;;5.28;;
25319;SDS011;13256;49.012;8.610;2023-11-18T08:42:42;6.93;;;5.32;;
25319;SDS011;13256;49.012;8.610;2023-11-18T08:45:42;5.65;;;3.50;;
25319;SDS011;13256;49.012;8.610;2023-11-18T08:48:27;4.35;;;2.83;;
25319;SDS011;13256;49.012;8.610;2023-11-18T08:51:00;4.30;;;2.88;;
25319;SDS011;13256;49.012;8.610;2023-11-18T08:57:59;6.88;;;2.55;;
25319;SDS011;13256;49.012;8.610;2023-11-18T09:00:36;6.47;;;2.97;;
25319;SDS011;13256;49.012;8.610;2023-11-18T09:03:37;4.13;;;2.35;;
25319;SDS011;13256;49.012;8.610;2023-11-18T09:06:21;4.00;;;2.47;;
25319;SDS011;13256;49.012;8.610;2023-11-18T09:12:01;3.67;;;2.03;;
25319;SDS011;13256;49.012;8.610;2023-11-18T09:14:29;7.25;;;2.25;;
25319;SDS011;13256;49.012;8.610;2023-11-18T09:20:43;3.60;;;1.98;;
25319;SDS011;13256;49.012;8.610;2023-11-18T09:23:20;10.48;;;5.05;;
25319;SDS011;13256;49.012;8.610;2023-11-18T09:25:57;8.05;;;3.38;;
25319;SDS011;13256;49.012;8.610;2023-11-18T09:28:24;10.77;;;5.00;;
25319;SDS011;13256;49.012;8.610;2023-11-18T09:31:11;4.50;;;2.78;;
25319;SDS011;13256;49.012;8.610;2023-11-18T09:34:07;4.15;;;2.65;;
25319;SDS011;13256;49.012;8.610;2023-11-18T09:40:23;4.95;;;2.10;;
25319;SDS011;13256;49.012;8.610;2023-11-18T09:43:18;9.02;;;3.20;;
25319;SDS011;13256;49.012;8.610;2023-11-18T09:45:56;5.93;;;2.95;;
25319;SDS011;13256;49.012;8.610;2023-11-18T09:48:26;3.45;;;2.45;;
25319;SDS011;13256;49.012;8.610;2023-11-18T09:50:53;7.00;;;1.92;;
25319;SDS011;13256;49.012;8.610;2023-11-18T09:53:29;3.70;;;2.08;;
25319;SDS011;13256;49.012;8.610;2023-11-18T10:00:23;3.42;;;1.83;;
25319;SDS011;13256;49.012;8.610;2023-11-18T10:06:25;3.85;;;1.48;;
25319;SDS011;13256;49.012;8.610;2023-11-18T10:09:22;10.43;;;4.00;;
25319;SDS011;13256;49.012;8.610;2023-11-18T10:18:38;4.82;;;1.88;;
25319;SDS011;13256;49.012;8.610;2023-11-18T10:21:20;3.17;;;2.03;;
25319;SDS011;13256;49.012;8.610;2023-11-18T10:25:05;3.97;;;1.92;;
25319;SDS011;13256;49.012;8.610;2023-11-18T10:27:36;5.25;;;2.28;;
25319;SDS011;13256;49.012;8.610;2023-11-18T10:30:14;4.95;;;2.10;;
25319;SDS011;13256;49.012;8.610;2023-11-18T10:33:04;6.40;;;2.50;;
25319;SDS011;13256;49.012;8.610;2023-11-18T10:35:51;8.93;;;1.70;;
25319;SDS011;13256;49.012;8.610;2023-11-18T10:41:40;5.57;;;1.83;;
25319;SDS011;13256;49.012;8.610;2023-11-18T10:44:23;2.45;;;1.58;;
25319;SDS011;13256;49.012;8.610;2023-11-18T10:46:57;4.13;;;1.85;;
25319;SDS011;13256;49.012;8.610;2023-11-18T10:52:06;7.03;;;5.53;;
25319;SDS011;13256;49.012;8.610;2023-11-18T10:54:37;4.70;;;2.53;;
25319;SDS011;13256;49.012;8.610;2023-11-18T10:57:25;1.52;;;1.17;;
25319;SDS011;13256;49.012;8.610;2023-11-18T11:03:12;4.13;;;1.13;;
25319;SDS011;13256;49.012;8.610;2023-11-18T11:08:59;2.15;;;0.82;;
25319;SDS011;13256;49.012;8.610;2023-11-18T11:11:56;1.65;;;1.08;;
25319;SDS011;13256;49.012;8.610;2023-11-18T11:14:37;4.68;;;1.10;;
25319;SDS011;13256;49.012;8.610;2023-11-18T11:17:16;3.20;;;1.17;;
25319;SDS011;13256;49.012;8.610;2023-11-18T11:20:03;1.08;;;0.80;;
25319;SDS011;13256;49.012;8.610;2023-11-18T11:26:06;2.60;;;1.33;;
25319;SDS011;13256;49.012;8.610;2023-11-18T11:29:42;4.57;;;1.92;;
25319;SDS011;13256;49.012;8.610;2023-11-18T11:32:24;3.25;;;1.50;;
25319;SDS011;13256;49.012;8.610;2023-11-18T11:35:30;3.15;;;1.00;;
25319;SDS011;13256;49.012;8.610;2023-11-18T11:38:12;2.45;;;1.30;;
25319;SDS011;13256;49.012;8.610;2023-11-18T11:41:10;5.28;;;1.50;;
25319;SDS011;13256;49.012;8.610;2023-11-18T11:44:39;4.97;;;1.30;;
25319;SDS011;13256;49.012;8.610;2023-11-18T11:47:08;5.22;;;3.30;;
25319;SDS011;13256;49.012;8.610;2023-11-18T11:50:13;6.70;;;2.67;;
25319;SDS011;13256;49.012;8.610;2023-11-18T11:53:05;5.30;;;3.83;;
25319;SDS011;13256;49.012;8.610;2023-11-18T11:55:49;18.85;;;11.18;;
25319;SDS011;13256;49.012;8.610;2023-11-18T11:58:28;18.48;;;11.68;;
25319;SDS011;13256;49.012;8.610;2023-11-18T12:03:57;3.13;;;1.92;;
25319;SDS011;13256;49.012;8.610;2023-11-18T12:06:29;5.87;;;1.40;;
25319;SDS011;13256;49.012;8.610;2023-11-18T12:08:59;9.05;;;4.43;;
25319;SDS011;13256;49.012;8.610;2023-11-18T12:11:32;5.15;;;1.88;;
25319;SDS011;13256;49.012;8.610;2023-11-18T12:14:06;7.13;;;3.50;;
25319;SDS011;13256;49.012;8.610;2023-11-18T12:19:50;6.32;;;3.17;;
25319;SDS011;13256;49.012;8.610;2023-11-18T12:22:22;9.95;;;3.60;;
25319;SDS011;13256;49.012;8.610;2023-11-18T12:27:50;68.70;;;27.73;;
25319;SDS011;13256;49.012;8.610;2023-11-18T12:32:59;20.27;;;8.27;;
25319;SDS011;13256;49.012;8.610;2023-11-18T12:35:51;12.85;;;3.67;;
25319;SDS011;13256;49.012;8.610;2023-11-18T12:42:05;11.80;;;4.85;;
25319;SDS011;13256;49.012;8.610;2023-11-18T12:44:36;8.73;;;3.90;;
25319;SDS011;13256;49.012;8.610;2023-11-18T12:47:25;3.78;;;2.05;;
25319;SDS011;13256;49.012;8.610;2023-11-18T12:49:56;3.35;;;1.98;;
25319;SDS011;13256;49.012;8.610;2023-11-18T12:52:26;4.00;;;2.00;;
25319;SDS011;13256;49.012;8.610;2023-11-18T12:54:57;3.80;;;2.03;;
25319;SDS011;13256;49.012;8.610;2023-11-18T12:57:29;3.97;;;2.13;;
25319;SDS011;13256;49.012;8.610;2023-11-18T13:00:02;9.43;;;4.00;;
25319;SDS011;13256;49.012;8.610;2023-11-18T13:02:48;3.58;;;2.10;;
25319;SDS011;13256;49.012;8.610;2023-11-18T13:11:14;4.25;;;1.77;;
25319;SDS011;13256;49.012;8.610;2023-11-18T13:13:43;3.47;;;2.13;;
25319;SDS011;13256;49.012;8.610;2023-11-18T13:19:07;14.30;;;6.00;;
25319;SDS011;13256;49.012;8.610;2023-11-18T13:24:39;114.20;;;31.95;;
25319;SDS011;13256;49.012;8.610;2023-11-18T13:30:19;29.05;;;9.82;;
25319;SDS011;13256;49.012;8.610;2023-11-18T13:36:12;19.75;;;10.30;;
25319;SDS011;13256;49.012;8.610;2023-11-18T13:38:39;17.00;;;8.25;;
25319;SDS011;13256;49.012;8.610;2023-11-18T13:47:01;6.57;;;4.85;;
25319;SDS011;13256;49.012;8.610;2023-11-18T13:49:49;7.80;;;4.28;;
25319;SDS011;13256;49.012;8.610;2023-11-18T13:52:46;5.03;;;3.30;;
25319;SDS011;13256;49.012;8.610;2023-11-18T13:55:15;7.47;;;3.03;;
25319;SDS011;13256;49.012;8.610;2023-11-18T13:57:58;3.90;;;2.25;;
25319;SDS011;13256;49.012;8.610;2023-11-18T14:00:31;3.75;;;2.05;;
25319;SDS011;13256;49.012;8.610;2023-11-18T14:03:08;4.25;;;1.88;;
25319;SDS011;13256;49.012;8.610;2023-11-18T14:06:14;4.05;;;2.42;;
25319;SDS011;13256;49.012;8.610;2023-11-18T14:08:43;5.28;;;2.40;;
25319;SDS011;13256;49.012;8.610;2023-11-18T14:11:11;3.50;;;1.88;;
25319;SDS011;13256;49.012;8.610;2023-11-18T14:16:41;3.17;;;2.05;;
25319;SDS011;13256;49.012;8.610;2023-11-18T14:19:12;6.55;;;2.70;;
25319;SDS011;13256;49.012;8.610;2023-11-18T14:25:01;5.53;;;2.47;;
25319;SDS011;13256;49.012;8.610;2023-11-18T14:27:52;4.95;;;2.40;;
25319;SDS011;13256;49.012;8.610;2023-11-18T14:33:52;8.43;;;3.78;;
25319;SDS011;13256;49.012;8.610;2023-11-18T14:36:28;8.88;;;3.95;;
25319;SDS011;13256;49.012;8.610;2023-11-18T14:38:54;7.95;;;3.03;;
25319;SDS011;13256;49.012;8.610;2023-11-18T14:41:22;5.47;;;3.20;;
25319;SDS011;13256;49.012;8.610;2023-11-18T14:43:56;5.75;;;3.10;;
25319;SDS011;13256;49.012;8.610;2023-11-18T14:47:39;8.45;;;3.70;;
25319;SDS011;13256;49.012;8.610;2023-11-18T14:50:48;13.27;;;4.93;;
25319;SDS011;13256;49.012;8.610;2023-11-18T14:53:23;7.28;;;3.70;;
25319;SDS011;13256;49.012;8.610;2023-11-18T14:55:50;8.63;;;3.75;;
25319;SDS011;13256;49.012;8.610;2023-11-18T14:58:20;3.30;;;2.25;;
25319;SDS011;13256;49.012;8.610;2023-11-18T15:00:50;7.00;;;3.25;;
25319;SDS011;13256;49.012;8.610;2023-11-18T15:03:56;6.95;;;3.50;;
25319;SDS011;13256;49.012;8.610;2023-11-18T15:06:58;5.25;;;2.55;;
25319;SDS011;13256;49.012;8.610;2023-11-18T15:09:29;5.63;;;2.72;;
25319;SDS011;13256;49.012;8.610;2023-11-18T15:12:00;7.60;;;3.05;;
25319;SDS011;13256;49.012;8.610;2023-11-18T15:14:28;4.47;;;2.70;;
25319;SDS011;13256;49.012;8.610;2023-11-18T15:16:59;8.02;;;2.65;;
25319;SDS011;13256;49.012;8.610;2023-11-18T15:19:56;4.00;;;3.30;;
25319;SDS011;13256;49.012;8.610;2023-11-18T15:22:27;7.13;;;3.35;;
25319;SDS011;13256;49.012;8.610;2023-11-18T15:26:04;7.43;;;3.67;;
25319;SDS011;13256;49.012;8.610;2023-11-18T15:28:36;8.35;;;3.05;;
25319;SDS011;13256;49.012;8.610;2023-11-18T15:31:07;6.20;;;3.35;;
25319;SDS011;13256;49.012;8.610;2023-11-18T15:33:37;8.73;;;4.22;;
25319;SDS011;13256;49.012;8.610;2023-11-18T15:36:05;8.05;;;4.22;;
25319;SDS011;13256;49.012;8.610;2023-11-18T15:39:24;10.32;;;4.72;;
25319;SDS011;13256;49.012;8.610;2023-11-18T15:45:13;5.63;;;2.72;;
25319;SDS011;13256;49.012;8.610;2023-11-18T15:47:56;4.32;;;2.20;;
25319;SDS011;13256;49.012;8.610;2023-11-18T15:50:41;7.35;;;3.30;;
25319;SDS011;13256;49.012;8.610;2023-11-18T15:53:22;5.30;;;2.88;;
25319;SDS011;13256;49.012;8.610;2023-11-18T15:56:54;5.13;;;3.28;;
25319;SDS011;13256;49.012;8.610;2023-11-18T15:59:26;7.78;;;4.03;;
25319;SDS011;13256;49.012;8.610;2023-11-18T16:01:58;9.95;;;2.75;;
25319;SDS011;13256;49.012;8.610;2023-11-18T16:04:28;7.80;;;3.25;;
25319;SDS011;13256;49.012;8.610;2023-11-18T16:06:55;16.33;;;5.53;;
25319;SDS011;13256;49.012;8.610;2023-11-18T16:09:25;8.63;;;5.22;;
25319;SDS011;13256;49.012;8.610;2023-11-18T16:12:38;12.23;;;5.15;;
25319;SDS011;13256;49.012;8.610;2023-11-18T16:18:20;7.50;;;4.05;;
25319;SDS011;13256;49.012;8.610;2023-11-18T16:23:56;5.03;;;3.65;;
25319;SDS011;13256;49.012;8.610;2023-11-18T16:26:26;7.40;;;3.92;;
25319;SDS011;13256;49.012;8.610;2023-11-18T16:28:53;8.77;;;4.50;;
25319;SDS011;13256;49.012;8.610;2023-11-18T16:31:21;6.45;;;3.42;;
25319;SDS011;13256;49.012;8.610;2023-11-18T16:33:52;11.32;;;5.68;;
25319;SDS011;13256;49.012;8.610;2023-11-18T16:37:00;14.05;;;5.88;;
25319;SDS011;13256;49.012;8.610;2023-11-18T16:39:35;11.63;;;5.20;;
25319;SDS011;13256;49.012;8.610;2023-11-18T16:42:04;10.25;;;5.03;;
25319;SDS011;13256;49.012;8.610;2023-11-18T16:44:33;8.13;;;4.22;;
25319;SDS011;13256;49.012;8.610;2023-11-18T16:49:55;9.50;;;3.95;;
25319;SDS011;13256;49.012;8.610;2023-11-18T16:52:30;7.95;;;5.00;;
25319;SDS011;13256;49.012;8.610;2023-11-18T16:54:59;9.55;;;3.97;;
25319;SDS011;13256;49.012;8.610;2023-11-18T16:57:29;5.10;;;2.75;;
25319;SDS011;13256;49.012;8.610;2023-11-18T16:59:57;6.28;;;3.08;;
25319;SDS011;13256;49.012;8.610;2023-11-18T17:02:26;9.48;;;3.38;;
25319;SDS011;13256;49.012;8.610;2023-11-18T17:04:56;11.05;;;3.33;;
25319;SDS011;13256;49.012;8.610;2023-11-18T17:07:25;10.40;;;3.40;;
25319;SDS011;13256;49.012;8.610;2023-11-18T17:09:53;4.10;;;2.85;;
25319;SDS011;13256;49.012;8.610;2023-11-18T17:12:20;8.85;;;3.25;;
25319;SDS011;13256;49.012;8.610;2023-11-18T17:14:48;7.22;;;3.33;;
25319;SDS011;13256;49.012;8.610;2023-11-18T17:17:15;7.57;;;4.00;;
25319;SDS011;13256;49.012;8.610;2023-11-18T17:19:42;7.57;;;3.40;;
25319;SDS011;13256;49.012;8.610;2023-11-18T17:22:13;7.50;;;3.30;;
25319;SDS011;13256;49.012;8.610;2023-11-18T17:24:40;10.60;;;4.30;;
25319;SDS011;13256;49.012;8.610;2023-11-18T17:27:08;6.10;;;2.88;;
25319;SDS011;13256;49.012;8.610;2023-11-18T17:29:39;4.13;;;2.40;;
25319;SDS011;13256;49.012;8.610;2023-11-18T17:32:08;4.18;;;2.13;;
25319;SDS011;13256;49.012;8.610;2023-11-18T17:34:36;7.22;;;2.47;;
25319;SDS011;13256;49.012;8.610;2023-11-18T17:37:03;4.63;;;2.25;;
25319;SDS011;13256;49.012;8.610;2023-11-18T17:39:30;4.93;;;2.28;;
25319;SDS011;13256;49.012;8.610;2023-11-18T17:42:01;4.93;;;2.63;;
25319;SDS011;13256;49.012;8.610;2023-11-18T17:44:30;4.38;;;2.72;;
25319;SDS011;13256;49.012;8.610;2023-11-18T17:46:58;4.63;;;2.60;;
25319;SDS011;13256;49.012;8.610;2023-11-18T17:49:25;3.80;;;2.22;;
25319;SDS011;13256;49.012;8.610;2023-11-18T17:51:57;3.47;;;2.80;;
25319;SDS011;13256;49.012;8.610;2023-11-18T17:54:26;4.47;;;2.65;;